createdAt,value
2019-04-24T00:01:16.380Z,34.20
2019-04-24T00:03:53.854Z,33.10
2019-04-24T00:06:34.176Z,37.40
2019-04-24T00:09:12.799Z,38.20
2019-04-24T00:20:09.748Z,49.80
2019-04-24T00:22:58.321Z,52.90
2019-04-24T00:25:08.825Z,53.40
2019-04-24T00:27:30.620Z,54.40
2019-04-24T00:30:15.570Z,57.30
2019-04-24T00:32:39.283Z,59.10
2019-04-24T00:35:17.423Z,63.70
2019-04-24T00:40:14.017Z,77.70
2019-04-24T00:42:49.813Z,83.50
2019-04-24T00:45:25.669Z,89.30
2019-04-24T00:47:58.953Z,86.90
2019-04-24T00:50:21.196Z,89.90
2019-04-24T00:55:30.254Z,97.60
2019-04-24T00:58:06.544Z,97.90
2019-04-24T01:00:36.217Z,99.90
2019-04-24T01:08:54.418Z,99.90
2019-04-24T01:13:54.336Z,99.90
2019-04-24T01:19:13.383Z,99.90
2019-04-24T01:21:33.737Z,99.90
2019-04-24T01:24:07.334Z,99.90
2019-04-24T01:26:37.273Z,99.90
2019-04-24T01:31:46.625Z,99.90
2019-04-24T01:34:51.018Z,99.90
2019-04-24T01:37:24.155Z,99.90
2019-04-24T01:40:00.251Z,99.90
2019-04-24T01:45:16.691Z,99.90
2019-04-24T01:47:51.492Z,99.90
2019-04-24T01:50:18.222Z,99.90
2019-04-24T01:55:08.896Z,99.90
2019-04-24T02:00:29.605Z,99.90
2019-04-24T02:02:53.688Z,99.90
2019-04-24T02:05:20.085Z,99.90
2019-04-24T02:11:34.239Z,99.90
2019-04-24T02:14:10.070Z,99.90
2019-04-24T02:19:08.190Z,99.90
2019-04-24T02:21:26.187Z,99.90
2019-04-24T02:23:57.088Z,99.90
2019-04-24T02:26:28.898Z,99.90
2019-04-24T02:31:41.487Z,99.90
2019-04-24T02:34:11.449Z,99.90
2019-04-24T02:40:04.117Z,99.90
2019-04-24T02:45:05.793Z,99.90
2019-04-24T02:47:32.780Z,99.90
2019-04-24T02:52:42.602Z,99.90
2019-04-24T02:57:47.467Z,99.90
2019-04-24T03:00:12.204Z,99.90
2019-04-24T03:03:06.230Z,99.90
2019-04-24T03:10:40.531Z,99.90
2019-04-24T03:16:36.479Z,99.90
2019-04-24T03:21:42.208Z,99.90
2019-04-24T03:24:02.551Z,99.90
2019-04-24T03:27:00.091Z,99.90
2019-04-24T03:39:57.177Z,99.90
2019-04-24T03:47:09.795Z,99.90
2019-04-24T04:03:17.235Z,99.90
2019-04-24T04:13:35.685Z,99.90
2019-04-24T04:15:57.131Z,99.90
2019-04-24T04:18:41.982Z,99.90
2019-04-24T04:37:31.973Z,99.90
2019-04-24T04:40:29.668Z,99.90
2019-04-24T04:45:21.381Z,99.90
2019-04-24T04:47:57.650Z,99.90
2019-04-24T04:51:00.502Z,99.90
2019-04-24T04:56:29.057Z,99.90
2019-04-24T04:58:53.183Z,99.90
2019-04-24T05:01:44.308Z,99.90
2019-04-24T05:07:12.240Z,99.90
2019-04-24T05:09:40.604Z,99.90
2019-04-24T05:19:31.372Z,99.90
2019-04-24T05:24:42.237Z,99.90
2019-04-24T05:30:08.014Z,99.90
2019-04-24T05:33:21.899Z,99.90
2019-04-24T05:38:14.430Z,99.90
2019-04-24T05:43:37.613Z,99.90
2019-04-24T05:46:05.273Z,99.90
2019-04-24T05:54:21.000Z,99.90
2019-04-24T05:57:09.508Z,99.90
2019-04-24T05:59:34.815Z,99.90
2019-04-24T06:02:33.782Z,99.90
2019-04-24T06:07:37.286Z,99.90
2019-04-24T06:10:39.614Z,99.90
2019-04-24T06:13:32.953Z,99.90
2019-04-24T06:16:25.183Z,99.90
2019-04-24T06:19:34.253Z,99.90
2019-04-24T06:22:00.522Z,99.90
2019-04-24T06:24:30.179Z,99.90
2019-04-24T06:29:41.771Z,99.90
2019-04-24T06:38:18.539Z,99.90
2019-04-24T06:41:10.954Z,99.90
2019-04-24T06:43:34.205Z,99.90
2019-04-24T06:46:21.927Z,99.90
2019-04-24T06:48:35.404Z,99.90
2019-04-24T06:51:23.994Z,99.90
2019-04-24T06:53:32.744Z,99.90
2019-04-24T06:56:32.175Z,99.90
2019-04-24T06:58:45.862Z,99.90
2019-04-24T07:01:31.441Z,99.90
2019-04-24T07:06:45.559Z,99.90
2019-04-24T07:15:10.598Z,99.90
2019-04-24T07:20:18.321Z,99.90
2019-04-24T07:23:07.648Z,99.90
2019-04-24T07:25:56.050Z,99.90
2019-04-24T07:28:35.085Z,99.90
2019-04-24T07:31:21.448Z,99.90
2019-04-24T07:34:05.986Z,99.90
2019-04-24T07:39:23.316Z,99.90
2019-04-24T07:41:59.764Z,99.90
2019-04-24T07:44:24.757Z,99.90
2019-04-24T07:46:55.477Z,99.90
2019-04-24T07:49:24.105Z,99.90
2019-04-24T07:57:18.522Z,99.90
2019-04-24T08:00:03.620Z,99.90
2019-04-24T08:18:29.546Z,99.90
2019-04-24T08:23:33.464Z,99.90
2019-04-24T08:25:55.476Z,99.90
2019-04-24T08:28:49.137Z,99.90
2019-04-24T08:32:24.791Z,99.90
2019-04-24T08:42:26.755Z,99.90
2019-04-24T08:45:11.011Z,99.90
2019-04-24T08:55:21.857Z,99.90
2019-04-24T08:58:15.791Z,99.90
2019-04-24T09:06:29.711Z,99.90
2019-04-24T09:12:30.357Z,99.90
2019-04-24T09:14:47.620Z,99.90
2019-04-24T09:17:10.296Z,99.90
2019-04-24T09:19:54.142Z,99.90
2019-04-24T09:22:22.944Z,99.90
2019-04-24T09:25:14.540Z,99.90
2019-04-24T09:28:05.272Z,99.90
2019-04-24T09:30:26.152Z,99.90
2019-04-24T09:38:49.116Z,99.90
2019-04-24T09:46:41.077Z,99.90
2019-04-24T09:51:44.433Z,99.90
2019-04-24T09:54:28.108Z,99.90
2019-04-24T09:57:13.355Z,99.90
2019-04-24T09:59:38.070Z,99.90
2019-04-24T10:07:50.808Z,99.90
2019-04-24T10:12:54.487Z,99.90
2019-04-24T10:15:39.115Z,99.90
2019-04-24T10:20:38.294Z,99.90
2019-04-24T10:23:42.546Z,99.90
2019-04-24T10:26:12.624Z,99.90
2019-04-24T10:32:20.660Z,99.90
2019-04-24T10:35:02.352Z,99.90
2019-04-24T10:38:17.530Z,99.90
2019-04-24T10:40:34.435Z,99.90
2019-04-24T10:43:19.217Z,99.90
2019-04-24T10:46:14.953Z,99.90
2019-04-24T10:48:46.343Z,99.90
2019-04-24T10:51:33.049Z,99.90
2019-04-24T10:56:30.539Z,99.90
2019-04-24T10:58:51.204Z,99.90
2019-04-24T11:01:50.014Z,99.90
2019-04-24T11:04:37.357Z,99.90
2019-04-24T11:07:42.216Z,99.90
2019-04-24T11:10:23.945Z,99.90
2019-04-24T11:12:57.144Z,99.90
2019-04-24T11:15:34.123Z,99.90
2019-04-24T11:18:00.172Z,99.90
2019-04-24T11:23:27.998Z,99.90
2019-04-24T11:26:13.642Z,99.90
2019-04-24T11:28:57.871Z,99.90
2019-04-24T11:31:37.691Z,99.90
2019-04-24T11:37:01.081Z,99.90
2019-04-24T11:40:08.608Z,99.90
2019-04-24T11:42:02.328Z,99.90
2019-04-24T11:44:52.141Z,99.90
2019-04-24T11:47:38.730Z,99.90
2019-04-24T11:50:24.510Z,99.90
2019-04-24T11:55:42.595Z,99.90
2019-04-24T12:01:00.077Z,99.90
2019-04-24T12:03:56.378Z,99.90
2019-04-24T12:06:22.562Z,99.90
2019-04-24T12:08:57.692Z,99.90
2019-04-24T12:11:35.888Z,99.90
2019-04-24T12:14:05.583Z,99.90
2019-04-24T12:16:50.127Z,99.90
2019-04-24T12:19:52.079Z,99.90
2019-04-24T12:22:10.798Z,99.90
2019-04-24T12:24:49.917Z,99.90
2019-04-24T12:27:17.146Z,99.90
2019-04-24T12:29:52.501Z,99.90
2019-04-24T12:32:48.962Z,99.90
2019-04-24T12:35:21.861Z,99.90
2019-04-24T12:43:36.427Z,99.90
2019-04-24T12:48:39.500Z,99.90
2019-04-24T12:53:56.949Z,99.90
2019-04-24T12:56:56.558Z,99.90
2019-04-24T12:59:44.344Z,99.90
2019-04-24T13:02:20.909Z,99.90
2019-04-24T13:05:00.483Z,99.90
2019-04-24T13:07:32.635Z,99.90
2019-04-24T13:10:12.394Z,99.90
2019-04-24T13:13:12.322Z,99.90
2019-04-24T13:18:36.946Z,99.90
2019-04-24T13:20:39.348Z,99.90
2019-04-24T13:23:20.120Z,99.90
2019-04-24T13:26:13.939Z,99.90
2019-04-24T13:29:12.536Z,99.90
2019-04-24T13:31:48.797Z,99.90
2019-04-24T13:34:19.874Z,99.90
2019-04-24T13:36:57.294Z,99.90
2019-04-24T13:39:30.357Z,99.90
2019-04-24T13:42:01.809Z,99.90
2019-04-24T13:44:46.433Z,99.90
2019-04-24T13:46:54.784Z,99.90
2019-04-24T13:49:30.543Z,99.90
2019-04-24T13:52:34.942Z,99.90
2019-04-24T13:54:37.298Z,99.90
2019-04-24T13:57:10.940Z,99.90
2019-04-24T13:59:46.443Z,99.90
2019-04-24T14:02:15.386Z,99.90
2019-04-24T14:04:51.409Z,99.90
2019-04-24T14:07:33.696Z,99.90
2019-04-24T14:17:28.869Z,99.90
2019-04-24T14:20:13.996Z,99.90
2019-04-24T14:22:58.390Z,99.90
2019-04-24T14:28:14.721Z,99.90
2019-04-24T14:30:29.081Z,97.70
2019-04-24T14:33:05.958Z,96.20
2019-04-24T14:35:35.582Z,95.60
2019-04-24T14:43:10.161Z,91.00
2019-04-24T14:45:56.231Z,90.00
2019-04-24T14:48:13.770Z,90.20
2019-04-24T14:50:40.025Z,89.50
2019-04-24T14:53:19.073Z,88.50
2019-04-24T14:55:52.463Z,88.00
2019-04-24T14:58:24.112Z,89.30
2019-04-24T15:00:56.711Z,90.20
2019-04-24T15:03:28.145Z,87.00
2019-04-24T15:06:06.629Z,88.20
2019-04-24T15:08:33.296Z,80.80
2019-04-24T15:13:57.180Z,84.10
2019-04-24T15:21:17.961Z,87.10
2019-04-24T15:24:14.291Z,88.60
2019-04-24T15:29:13.130Z,87.10
2019-04-24T15:31:21.148Z,76.30
2019-04-24T15:34:07.174Z,87.20
2019-04-24T15:36:24.971Z,84.90
2019-04-24T15:39:05.879Z,94.70
2019-04-24T15:41:42.257Z,79.40
2019-04-24T15:44:08.981Z,78.60
2019-04-24T15:46:46.796Z,75.40
2019-04-24T15:49:11.355Z,75.60
2019-04-24T15:51:30.481Z,77.60
2019-04-24T15:53:48.387Z,76.90
2019-04-24T15:56:18.785Z,78.80
2019-04-24T15:58:58.643Z,83.70
2019-04-24T16:01:56.357Z,83.00
2019-04-24T16:04:27.858Z,82.80
2019-04-24T16:06:40.329Z,94.50
2019-04-24T16:09:34.129Z,80.10
2019-04-24T16:12:04.553Z,79.60
2019-04-24T16:17:38.750Z,78.40
2019-04-24T16:22:41.996Z,77.60
2019-04-24T16:27:52.426Z,92.50
2019-04-24T16:30:24.453Z,75.20
2019-04-24T16:35:17.414Z,73.80
2019-04-24T16:38:03.143Z,72.40
2019-04-24T16:43:48.244Z,69.50
2019-04-24T16:46:40.158Z,68.50
2019-04-24T16:48:35.436Z,71.00
2019-04-24T16:51:22.666Z,65.50
2019-04-24T16:54:00.598Z,57.40
2019-04-24T16:56:35.001Z,53.10
2019-04-24T16:58:55.106Z,50.70
2019-04-24T17:01:33.261Z,47.90
2019-04-24T17:04:26.625Z,41.40
2019-04-24T17:06:45.697Z,34.20
2019-04-24T17:09:08.998Z,33.70
2019-04-24T17:11:35.985Z,33.40
2019-04-24T17:14:32.569Z,33.50
2019-04-24T17:19:51.754Z,31.70
2019-04-24T17:22:30.450Z,29.20
2019-04-24T17:27:30.183Z,28.50
2019-04-24T17:35:18.621Z,29.80
2019-04-24T17:37:10.372Z,31.60
2019-04-24T17:39:47.385Z,31.10
2019-04-24T17:42:34.003Z,32.60
2019-04-24T17:47:56.009Z,28.40
2019-04-24T17:55:33.467Z,28.70
2019-04-24T18:00:09.404Z,18.00
2019-04-24T18:02:39.817Z,15.00
2019-04-24T18:05:14.574Z,13.00
2019-04-24T18:07:44.977Z,7.20
2019-04-24T18:10:15.775Z,7.00
2019-04-24T18:12:46.188Z,6.10
2019-04-24T18:15:16.559Z,6.20
2019-04-24T18:17:46.976Z,7.90
2019-04-24T18:20:17.436Z,7.70
2019-04-24T18:22:47.836Z,7.40
2019-04-24T18:25:30.266Z,8.90
2019-04-24T18:28:01.441Z,7.10
2019-04-24T18:30:32.833Z,5.80
2019-04-24T18:33:05.369Z,3.70
2019-04-24T18:35:39.013Z,1.40
2019-04-24T18:38:13.582Z,1.40
2019-04-24T18:40:41.401Z,1.00
2019-04-24T18:43:12.428Z,1.00
2019-04-24T18:45:43.682Z,1.00
2019-04-24T18:48:14.888Z,1.00
2019-04-24T18:50:45.448Z,1.00
2019-04-24T18:53:15.853Z,1.00
2019-04-24T18:55:46.238Z,1.00
2019-04-24T18:58:17.206Z,1.00
2019-04-24T19:00:47.745Z,1.00
2019-04-24T19:03:18.234Z,1.00
2019-04-24T19:05:48.646Z,1.00
2019-04-24T19:08:19.057Z,1.00
2019-04-24T19:10:49.442Z,1.00
2019-04-24T19:13:19.847Z,1.00
2019-04-24T19:15:51.344Z,1.00
2019-04-24T19:18:22.425Z,1.00
2019-04-24T19:20:52.833Z,1.00
2019-04-24T19:23:23.275Z,1.00
2019-04-24T19:25:53.666Z,1.00
2019-04-24T19:28:24.081Z,1.00
2019-04-24T19:30:54.571Z,1.00
2019-04-24T19:33:24.967Z,1.00
2019-04-24T19:35:55.343Z,1.00
2019-04-24T19:38:25.803Z,1.00
2019-04-24T19:40:56.215Z,1.00
2019-04-24T19:43:26.629Z,1.00
2019-04-24T19:45:57.090Z,1.00
2019-04-24T19:48:27.595Z,1.00
2019-04-24T19:50:57.992Z,1.00
2019-04-24T19:53:28.384Z,1.00
2019-04-24T19:55:58.779Z,1.00
2019-04-24T19:58:29.161Z,1.00
2019-04-24T20:00:59.549Z,1.00
2019-04-24T20:03:29.955Z,1.00
2019-04-24T20:06:01.997Z,1.00
2019-04-24T20:08:32.733Z,1.00
2019-04-24T20:11:08.468Z,1.00
2019-04-24T20:13:38.935Z,1.00
2019-04-24T20:16:10.736Z,1.00
2019-04-24T20:18:42.055Z,1.00
2019-04-24T20:21:13.840Z,1.00
2019-04-24T20:23:44.828Z,1.00
2019-04-24T20:26:15.421Z,1.00
2019-04-24T20:28:46.018Z,1.00
2019-04-24T20:31:16.462Z,1.00
2019-04-24T20:33:46.872Z,1.00
2019-04-24T20:36:17.277Z,1.00
2019-04-24T20:38:47.844Z,1.00
2019-04-24T20:41:19.156Z,1.00
2019-04-24T20:43:49.603Z,1.00
2019-04-24T20:46:19.989Z,1.00
2019-04-24T20:48:51.260Z,1.00
2019-04-24T20:51:22.404Z,1.00
2019-04-24T20:53:53.660Z,1.80
2019-04-24T20:56:26.386Z,1.60
2019-04-24T20:58:56.197Z,12.20
2019-04-24T21:01:27.718Z,1.00
2019-04-24T21:03:58.221Z,1.00
2019-04-24T21:06:36.436Z,1.00
2019-04-24T21:09:28.437Z,1.00
2019-04-24T21:12:01.625Z,1.00
2019-04-24T21:14:33.392Z,1.40
2019-04-24T21:17:03.776Z,1.90
2019-04-24T21:19:34.201Z,1.70
2019-04-24T21:22:04.590Z,1.00
2019-04-24T21:24:35.026Z,10.70
2019-04-24T21:27:05.417Z,1.00
2019-04-24T21:29:35.845Z,1.00
2019-04-24T21:32:06.227Z,1.00
2019-04-24T21:34:36.627Z,1.00
2019-04-24T21:37:07.019Z,1.00
2019-04-24T21:39:37.457Z,1.00
2019-04-24T21:42:07.879Z,1.00
2019-04-24T21:44:38.387Z,1.00
2019-04-24T21:47:08.824Z,1.00
2019-04-24T21:49:39.276Z,1.00
2019-04-24T21:52:09.720Z,1.50
2019-04-24T21:54:41.407Z,3.20
2019-04-24T21:57:12.164Z,1.70
2019-04-24T21:59:42.670Z,1.00
2019-04-24T22:02:38.121Z,2.40
2019-04-24T22:05:43.684Z,3.10
2019-04-24T22:08:15.485Z,4.30
2019-04-24T22:10:45.952Z,6.90
2019-04-24T22:13:17.070Z,11.10
2019-04-24T22:15:47.511Z,13.10
2019-04-24T22:18:18.013Z,13.80
2019-04-24T22:20:51.665Z,14.00
2019-04-24T22:23:42.913Z,14.50
2019-04-24T22:26:12.904Z,13.70
2019-04-24T22:28:49.514Z,14.90
2019-04-24T22:31:24.635Z,14.50
2019-04-24T22:34:01.268Z,15.70
2019-04-24T22:36:32.975Z,17.30
2019-04-24T22:39:23.537Z,17.30
2019-04-24T22:41:54.041Z,16.50
2019-04-24T22:44:24.533Z,17.00
2019-04-24T22:46:54.924Z,17.20
2019-04-24T22:49:25.277Z,18.10
2019-04-24T22:51:55.717Z,17.90
2019-04-24T22:54:31.116Z,18.90
2019-04-24T22:56:59.157Z,21.20
2019-04-24T22:59:29.938Z,19.90
2019-04-24T23:02:02.895Z,20.60
2019-04-24T23:04:33.998Z,23.30
2019-04-24T23:07:05.477Z,22.70
2019-04-24T23:09:37.625Z,21.60
2019-04-24T23:12:08.057Z,21.50
2019-04-24T23:14:39.066Z,20.80
2019-04-24T23:17:11.674Z,21.60
2019-04-24T23:19:42.735Z,21.90
2019-04-24T23:22:33.197Z,21.10
2019-04-24T23:25:27.829Z,23.10
2019-04-24T23:28:29.470Z,21.40
2019-04-24T23:31:11.409Z,22.30
2019-04-24T23:33:45.913Z,23.90
2019-04-24T23:36:16.523Z,26.00
2019-04-24T23:38:46.906Z,25.70
2019-04-24T23:41:17.355Z,32.20
2019-04-24T23:43:47.728Z,32.10
2019-04-24T23:46:18.116Z,29.10
2019-04-24T23:48:48.501Z,29.00
2019-04-24T23:51:18.914Z,33.40
2019-04-24T23:53:49.446Z,33.20
2019-04-24T23:56:19.830Z,35.60
2019-04-24T23:58:50.201Z,37.80
